createdAt,value
2019-02-09T00:02:12.975Z,8.50
2019-02-09T00:04:43.579Z,11.97
2019-02-09T00:07:14.032Z,9.40
2019-02-09T00:09:44.360Z,7.43
2019-02-09T00:12:17.196Z,8.47
2019-02-09T00:14:47.554Z,6.00
2019-02-09T00:17:18.142Z,6.30
2019-02-09T00:19:48.555Z,12.40
2019-02-09T00:22:19.027Z,9.20
2019-02-09T00:24:49.393Z,11.33
2019-02-09T00:27:19.641Z,7.90
2019-02-09T00:29:50.015Z,6.97
2019-02-09T00:32:20.386Z,4.17
2019-02-09T00:34:50.853Z,11.00
2019-02-09T00:37:21.240Z,7.67
2019-02-09T00:39:51.599Z,11.57
2019-02-09T00:42:22.177Z,7.13
2019-02-09T00:44:52.574Z,9.53
2019-02-09T00:47:22.921Z,7.00
2019-02-09T00:49:53.386Z,4.83
2019-02-09T00:52:23.783Z,9.10
2019-02-09T00:54:54.691Z,6.00
2019-02-09T00:57:25.112Z,5.10
2019-02-09T00:59:55.545Z,8.17
2019-02-09T01:02:25.901Z,6.60
2019-02-09T01:04:56.336Z,6.60
2019-02-09T01:07:26.805Z,5.13
2019-02-09T01:09:57.272Z,6.93
2019-02-09T01:12:27.812Z,4.80
2019-02-09T01:15:15.662Z,7.30
2019-02-09T01:17:48.625Z,8.33
2019-02-09T01:20:23.482Z,5.57
2019-02-09T01:22:54.691Z,4.90
2019-02-09T01:25:25.207Z,5.77
2019-02-09T01:27:55.633Z,3.90
2019-02-09T01:30:26.677Z,7.23
2019-02-09T01:32:58.005Z,5.33
2019-02-09T01:35:28.446Z,5.07
2019-02-09T01:38:03.985Z,5.50
2019-02-09T01:40:34.622Z,4.43
2019-02-09T01:43:05.150Z,6.53
2019-02-09T01:45:35.460Z,7.13
2019-02-09T01:48:05.969Z,4.13
2019-02-09T01:50:36.605Z,3.30
2019-02-09T01:53:07.162Z,4.87
2019-02-09T01:55:40.724Z,7.83
2019-02-09T01:58:22.477Z,6.47
2019-02-09T02:00:54.849Z,3.80
2019-02-09T02:03:25.400Z,2.83
2019-02-09T02:05:55.848Z,4.37
2019-02-09T02:08:27.184Z,4.63
2019-02-09T02:11:03.270Z,4.03
2019-02-09T02:13:33.623Z,4.53
2019-02-09T02:16:04.293Z,6.00
2019-02-09T02:18:36.510Z,3.50
2019-02-09T02:21:06.892Z,5.97
2019-02-09T02:23:37.343Z,4.37
2019-02-09T02:26:07.821Z,4.30
2019-02-09T02:28:40.554Z,3.17
2019-02-09T02:31:10.910Z,4.33
2019-02-09T02:33:41.357Z,4.40
2019-02-09T02:36:12.009Z,3.10
2019-02-09T02:38:42.468Z,3.60
2019-02-09T02:41:12.930Z,2.93
2019-02-09T02:43:46.980Z,3.83
2019-02-09T02:46:19.704Z,3.60
2019-02-09T02:48:50.131Z,1.93
2019-02-09T02:51:21.090Z,3.13
2019-02-09T02:53:51.464Z,1.83
2019-02-09T02:56:23.937Z,2.40
2019-02-09T02:58:54.443Z,2.40
2019-02-09T03:01:24.969Z,1.93
2019-02-09T03:03:55.379Z,4.20
2019-02-09T03:06:25.819Z,3.30
2019-02-09T03:08:56.336Z,6.33
2019-02-09T03:11:26.845Z,2.87
2019-02-09T03:13:57.200Z,6.80
2019-02-09T03:16:30.746Z,2.60
2019-02-09T03:19:03.475Z,5.20
2019-02-09T03:21:33.845Z,4.00
2019-02-09T03:24:04.591Z,3.03
2019-02-09T03:26:35.018Z,4.27
2019-02-09T03:29:05.447Z,5.23
2019-02-09T03:31:35.868Z,4.03
2019-02-09T03:34:06.427Z,8.13
2019-02-09T03:36:38.667Z,4.57
2019-02-09T03:39:09.353Z,3.63
2019-02-09T03:41:39.718Z,9.03
2019-02-09T03:44:10.342Z,5.53
2019-02-09T03:46:40.776Z,6.00
2019-02-09T03:49:12.902Z,5.60
2019-02-09T03:51:45.676Z,4.67
2019-02-09T03:54:18.442Z,4.20
2019-02-09T03:56:49.023Z,5.53
2019-02-09T03:59:20.004Z,3.23
2019-02-09T04:01:50.427Z,6.93
2019-02-09T04:04:21.225Z,4.13
2019-02-09T04:06:51.625Z,3.20
2019-02-09T04:09:22.047Z,5.80
2019-02-09T04:11:52.315Z,3.47
2019-02-09T04:14:22.832Z,2.53
2019-02-09T04:16:53.196Z,6.90
2019-02-09T04:19:26.736Z,8.37
2019-02-09T04:21:57.420Z,3.43
2019-02-09T04:24:27.825Z,6.50
2019-02-09T04:27:00.758Z,4.53
2019-02-09T04:29:31.144Z,6.07
2019-02-09T04:32:01.559Z,6.17
2019-02-09T04:34:34.355Z,5.40
2019-02-09T04:37:04.748Z,5.23
2019-02-09T04:39:35.115Z,3.97
2019-02-09T04:42:11.131Z,7.33
2019-02-09T04:44:41.612Z,7.93
2019-02-09T04:47:13.542Z,6.77
2019-02-09T04:49:43.868Z,6.43
2019-02-09T04:52:14.332Z,7.77
2019-02-09T04:54:45.606Z,3.60
2019-02-09T04:57:16.737Z,8.43
2019-02-09T04:59:47.005Z,6.73
2019-02-09T05:02:17.571Z,5.87
2019-02-09T05:04:47.975Z,3.73
2019-02-09T05:07:18.795Z,5.60
2019-02-09T05:09:49.220Z,4.97
2019-02-09T05:12:22.250Z,5.80
2019-02-09T05:14:52.710Z,7.77
2019-02-09T05:17:24.552Z,3.60
2019-02-09T05:19:55.241Z,5.47
2019-02-09T05:22:25.625Z,4.10
2019-02-09T05:24:56.053Z,8.53
2019-02-09T05:27:27.037Z,5.40
2019-02-09T05:29:58.219Z,4.13
2019-02-09T05:32:28.627Z,9.50
2019-02-09T05:35:02.126Z,4.50
2019-02-09T05:37:32.521Z,8.37
2019-02-09T05:40:02.963Z,5.90
2019-02-09T05:42:33.718Z,8.77
2019-02-09T05:45:04.550Z,5.37
2019-02-09T05:47:37.018Z,8.73
2019-02-09T05:50:08.198Z,6.17
2019-02-09T05:52:39.856Z,5.53
2019-02-09T05:55:22.489Z,11.37
2019-02-09T05:57:53.016Z,5.77
2019-02-09T06:00:34.860Z,5.80
2019-02-09T06:03:05.372Z,7.47
2019-02-09T06:05:36.182Z,9.47
2019-02-09T06:08:07.366Z,6.50
2019-02-09T06:10:39.053Z,5.70
2019-02-09T06:13:09.677Z,7.90
2019-02-09T06:15:40.187Z,6.80
2019-02-09T06:18:10.818Z,2.70
2019-02-09T06:20:41.236Z,10.57
2019-02-09T06:23:11.642Z,10.07
2019-02-09T06:25:42.867Z,7.07
2019-02-09T06:28:13.314Z,11.30
2019-02-09T06:30:43.771Z,10.73
2019-02-09T06:33:14.305Z,8.10
2019-02-09T06:35:44.965Z,5.73
2019-02-09T06:38:18.890Z,7.13
2019-02-09T06:40:49.387Z,8.70
2019-02-09T06:43:19.761Z,6.87
2019-02-09T06:45:50.182Z,8.90
2019-02-09T06:48:30.333Z,7.60
2019-02-09T06:51:02.220Z,6.33
2019-02-09T06:53:34.011Z,10.60
2019-02-09T06:56:04.755Z,7.57
2019-02-09T06:58:35.215Z,9.83
2019-02-09T07:01:06.141Z,8.07
2019-02-09T07:03:39.840Z,8.87
2019-02-09T07:06:10.509Z,7.40
2019-02-09T07:08:41.753Z,8.60
2019-02-09T07:11:12.428Z,8.13
2019-02-09T07:13:42.920Z,9.63
2019-02-09T07:16:13.270Z,11.47
2019-02-09T07:18:44.154Z,8.23
2019-02-09T07:21:14.624Z,10.03
2019-02-09T07:23:45.090Z,11.00
2019-02-09T07:26:16.220Z,8.93
2019-02-09T07:28:46.755Z,9.40
2019-02-09T07:31:19.109Z,12.37
2019-02-09T07:33:50.266Z,7.03
2019-02-09T07:36:20.754Z,8.17
2019-02-09T07:38:51.213Z,10.33
2019-02-09T07:41:21.601Z,7.77
2019-02-09T07:43:54.744Z,8.63
2019-02-09T07:46:25.101Z,8.93
2019-02-09T07:48:58.556Z,6.03
2019-02-09T07:51:29.426Z,12.67
2019-02-09T07:54:01.979Z,9.20
2019-02-09T07:56:34.396Z,9.83
2019-02-09T07:59:05.548Z,7.37
2019-02-09T08:01:36.799Z,9.90
2019-02-09T08:04:07.191Z,10.73
2019-02-09T08:06:37.679Z,11.17
2019-02-09T08:09:14.426Z,8.40
2019-02-09T08:11:46.865Z,9.47
2019-02-09T08:14:17.354Z,12.57
2019-02-09T08:16:48.198Z,13.00
2019-02-09T08:19:18.610Z,8.93
2019-02-09T08:21:49.856Z,8.40
2019-02-09T08:24:25.444Z,9.20
2019-02-09T08:26:55.859Z,6.93
2019-02-09T08:29:29.675Z,8.23
2019-02-09T08:32:00.182Z,10.70
2019-02-09T08:34:32.114Z,13.00
2019-02-09T08:37:02.662Z,7.70
2019-02-09T08:39:36.838Z,13.37
2019-02-09T08:42:07.297Z,17.63
2019-02-09T08:44:40.016Z,12.67
2019-02-09T08:47:10.447Z,10.00
2019-02-09T08:49:40.831Z,14.40
2019-02-09T08:52:11.353Z,9.10
2019-02-09T08:54:41.833Z,13.93
2019-02-09T08:57:13.672Z,12.27
2019-02-09T08:59:45.031Z,10.83
2019-02-09T09:02:20.448Z,11.37
2019-02-09T09:04:47.908Z,15.13
2019-02-09T09:07:18.662Z,13.37
2019-02-09T09:09:49.049Z,12.00
2019-02-09T09:12:19.411Z,13.77
2019-02-09T09:14:50.157Z,10.50
2019-02-09T09:17:20.559Z,9.33
2019-02-09T09:19:51.075Z,8.90
2019-02-09T09:22:22.255Z,13.47
2019-02-09T09:24:52.756Z,15.93
2019-02-09T09:27:23.162Z,12.93
2019-02-09T09:29:54.077Z,11.50
2019-02-09T09:32:28.659Z,13.75
2019-02-09T09:34:57.091Z,17.20
2019-02-09T09:37:27.363Z,7.80
2019-02-09T09:39:57.809Z,14.87
2019-02-09T09:42:28.408Z,8.70
2019-02-09T09:44:59.801Z,8.80
2019-02-09T09:47:30.448Z,11.50
2019-02-09T09:50:00.915Z,14.30
2019-02-09T09:52:31.332Z,17.43
2019-02-09T09:55:01.678Z,14.93
2019-02-09T09:57:32.126Z,13.43
2019-02-09T10:00:02.561Z,14.50
2019-02-09T10:02:36.548Z,14.47
2019-02-09T10:05:06.400Z,16.03
2019-02-09T10:07:37.013Z,9.23
2019-02-09T10:10:08.889Z,11.83
2019-02-09T10:12:39.502Z,10.33
2019-02-09T10:15:11.423Z,9.20
2019-02-09T10:17:41.774Z,8.83
2019-02-09T10:20:14.183Z,12.97
2019-02-09T10:22:44.572Z,12.37
2019-02-09T10:25:15.400Z,7.20
2019-02-09T10:27:46.388Z,11.27
2019-02-09T10:30:18.992Z,10.33
2019-02-09T10:32:49.474Z,13.57
2019-02-09T10:35:20.405Z,16.73
2019-02-09T10:37:50.821Z,12.77
2019-02-09T10:40:23.180Z,10.50
2019-02-09T10:42:54.334Z,13.17
2019-02-09T10:45:27.099Z,12.73
2019-02-09T10:47:57.897Z,16.97
2019-02-09T10:50:32.924Z,16.03
2019-02-09T10:53:03.331Z,12.57
2019-02-09T10:55:33.853Z,8.83
2019-02-09T10:58:04.600Z,15.70
2019-02-09T11:00:40.664Z,12.00
2019-02-09T11:03:11.029Z,12.77
2019-02-09T11:05:41.360Z,8.57
2019-02-09T11:08:11.738Z,11.00
2019-02-09T11:10:42.378Z,13.37
2019-02-09T11:13:12.741Z,15.63
2019-02-09T11:15:43.162Z,19.90
2019-02-09T11:18:13.485Z,9.70
2019-02-09T11:20:43.875Z,15.20
2019-02-09T11:23:14.275Z,10.03
2019-02-09T11:25:44.640Z,11.17
2019-02-09T11:28:15.029Z,20.90
2019-02-09T11:30:45.456Z,14.03
2019-02-09T11:33:15.786Z,9.10
2019-02-09T11:35:49.314Z,15.77
2019-02-09T11:38:19.613Z,16.73
2019-02-09T11:40:50.840Z,11.13
2019-02-09T11:43:21.210Z,9.90
2019-02-09T11:45:51.672Z,19.33
2019-02-09T11:48:22.034Z,14.60
2019-02-09T11:50:52.479Z,11.20
2019-02-09T11:53:23.345Z,10.53
2019-02-09T11:55:53.722Z,13.00
2019-02-09T11:58:24.040Z,12.97
2019-02-09T12:00:54.536Z,10.63
2019-02-09T12:03:25.973Z,10.50
2019-02-09T12:05:56.340Z,25.90
2019-02-09T12:08:26.652Z,14.50
2019-02-09T12:10:57.003Z,15.50
2019-02-09T12:13:27.385Z,13.63
2019-02-09T12:15:57.706Z,12.37
2019-02-09T12:18:28.030Z,11.00
2019-02-09T12:20:58.493Z,11.03
2019-02-09T12:23:28.808Z,11.50
2019-02-09T12:25:59.138Z,13.77
2019-02-09T12:28:29.586Z,16.20
2019-02-09T12:31:03.051Z,13.57
2019-02-09T12:33:34.671Z,18.70
2019-02-09T12:36:05.578Z,13.27
2019-02-09T12:38:36.795Z,16.57
2019-02-09T12:41:07.305Z,17.87
2019-02-09T12:43:37.841Z,7.87
2019-02-09T12:46:08.309Z,14.43
2019-02-09T12:48:38.735Z,12.47
2019-02-09T12:51:09.211Z,14.47
2019-02-09T12:53:39.588Z,16.20
2019-02-09T12:56:09.961Z,9.27
2019-02-09T12:58:40.414Z,18.00
2019-02-09T13:01:11.157Z,11.70
2019-02-09T13:03:41.473Z,15.10
2019-02-09T13:06:11.861Z,15.73
2019-02-09T13:08:42.330Z,13.73
2019-02-09T13:11:12.827Z,11.70
2019-02-09T13:13:43.213Z,11.03
2019-02-09T13:16:13.984Z,14.33
2019-02-09T13:18:44.609Z,15.80
2019-02-09T13:21:15.205Z,13.37
2019-02-09T13:23:45.598Z,15.17
2019-02-09T13:26:16.005Z,11.03
2019-02-09T13:28:46.358Z,15.47
2019-02-09T13:31:16.753Z,10.93
2019-02-09T13:33:47.146Z,16.93
2019-02-09T13:36:22.584Z,13.57
2019-02-09T13:38:53.093Z,11.50
2019-02-09T13:41:23.401Z,15.83
2019-02-09T13:43:53.791Z,13.23
2019-02-09T13:46:24.094Z,13.43
2019-02-09T13:48:54.551Z,9.67
2019-02-09T13:51:24.936Z,9.90
2019-02-09T13:53:56.010Z,15.63
2019-02-09T13:56:27.226Z,11.70
2019-02-09T13:58:57.694Z,11.93
2019-02-09T14:01:28.136Z,12.23
2019-02-09T14:03:58.563Z,11.83
2019-02-09T14:06:46.898Z,10.47
2019-02-09T14:09:17.474Z,7.63
2019-02-09T14:11:48.054Z,11.50
2019-02-09T14:14:18.547Z,11.50
2019-02-09T14:16:49.075Z,13.47
2019-02-09T14:19:19.532Z,10.60
2019-02-09T14:21:50.016Z,7.97
2019-02-09T14:24:20.574Z,11.93
2019-02-09T14:26:51.378Z,10.70
2019-02-09T14:29:21.731Z,12.13
2019-02-09T14:31:53.121Z,13.97
2019-02-09T14:34:23.688Z,7.53
2019-02-09T14:36:54.138Z,7.60
2019-02-09T14:39:24.498Z,8.70
2019-02-09T14:41:55.029Z,13.90
2019-02-09T14:44:25.519Z,10.53
2019-02-09T14:46:56.029Z,13.57
2019-02-09T14:49:26.562Z,7.40
2019-02-09T14:51:56.973Z,6.27
2019-02-09T14:54:27.528Z,10.27
2019-02-09T14:56:57.956Z,8.17
2019-02-09T14:59:28.363Z,11.50
2019-02-09T15:01:58.894Z,20.30
2019-02-09T15:04:30.072Z,8.80
2019-02-09T15:07:00.839Z,12.83
2019-02-09T15:09:31.385Z,10.43
2019-02-09T15:12:01.774Z,12.47
2019-02-09T15:14:32.177Z,13.43
2019-02-09T15:17:05.553Z,10.17
2019-02-09T15:19:39.647Z,9.07
2019-02-09T15:22:10.177Z,15.20
2019-02-09T15:24:41.423Z,9.90
2019-02-09T15:27:11.880Z,13.50
2019-02-09T15:29:42.286Z,12.73
2019-02-09T15:32:12.765Z,17.53
2019-02-09T15:34:45.699Z,13.77
2019-02-09T15:37:16.129Z,17.30
2019-02-09T15:39:48.742Z,12.13
2019-02-09T15:42:19.112Z,11.70
2019-02-09T15:44:49.589Z,7.33
2019-02-09T15:47:20.088Z,8.43
2019-02-09T15:49:50.523Z,12.50
2019-02-09T15:52:20.946Z,11.27
2019-02-09T15:54:51.369Z,10.30
2019-02-09T15:57:21.774Z,10.07
2019-02-09T15:59:52.158Z,12.03
2019-02-09T16:02:25.430Z,11.27
2019-02-09T16:04:56.193Z,9.37
2019-02-09T16:07:26.634Z,10.87
2019-02-09T16:09:57.344Z,17.00
2019-02-09T16:12:28.584Z,11.80
2019-02-09T16:14:59.042Z,10.77
2019-02-09T16:17:29.430Z,11.23
2019-02-09T16:19:59.852Z,10.97
2019-02-09T16:22:31.595Z,10.23
2019-02-09T16:25:02.224Z,9.87
2019-02-09T16:27:32.786Z,6.60
2019-02-09T16:30:04.410Z,13.27
2019-02-09T16:32:35.080Z,10.77
2019-02-09T16:35:09.178Z,11.67
2019-02-09T16:37:40.317Z,13.53
2019-02-09T16:40:15.997Z,13.00
2019-02-09T16:42:47.075Z,8.70
2019-02-09T16:45:28.897Z,9.70
2019-02-09T16:48:02.143Z,11.00
2019-02-09T16:50:38.136Z,7.63
2019-02-09T16:53:08.801Z,7.10
2019-02-09T16:55:39.753Z,9.10
2019-02-09T16:58:10.131Z,7.70
2019-02-09T17:00:42.119Z,9.43
2019-02-09T17:03:13.723Z,8.57
2019-02-09T17:05:45.179Z,8.83
2019-02-09T17:08:18.555Z,7.90
2019-02-09T17:10:52.950Z,6.63
2019-02-09T17:13:24.923Z,11.37
2019-02-09T17:15:55.349Z,10.17
2019-02-09T17:18:25.771Z,10.37
2019-02-09T17:20:56.179Z,9.43
2019-02-09T17:23:28.199Z,8.27
2019-02-09T17:26:00.018Z,6.43
2019-02-09T17:28:31.163Z,9.00
2019-02-09T17:31:01.538Z,8.23
2019-02-09T17:33:31.859Z,12.67
2019-02-09T17:36:02.650Z,10.67
2019-02-09T17:38:37.944Z,7.70
2019-02-09T17:41:08.838Z,10.10
2019-02-09T17:43:39.641Z,9.67
2019-02-09T17:46:15.735Z,11.00
2019-02-09T17:48:46.226Z,8.93
2019-02-09T17:51:16.455Z,16.17
2019-02-09T17:53:46.894Z,9.33
2019-02-09T17:56:17.395Z,9.23
2019-02-09T17:58:47.852Z,8.83
2019-02-09T18:01:18.163Z,12.93
2019-02-09T18:03:48.541Z,10.30
2019-02-09T18:06:18.982Z,5.87
2019-02-09T18:08:49.450Z,8.43
2019-02-09T18:11:20.205Z,10.87
2019-02-09T18:13:50.510Z,10.33
2019-02-09T18:16:21.424Z,7.10
2019-02-09T18:18:51.773Z,10.97
2019-02-09T18:21:22.180Z,7.00
2019-02-09T18:23:52.571Z,11.57
2019-02-09T18:26:23.268Z,10.93
2019-02-09T18:28:53.734Z,9.83
2019-02-09T18:31:24.245Z,10.07
2019-02-09T18:33:54.958Z,10.00
2019-02-09T18:36:25.344Z,6.23
2019-02-09T18:38:55.736Z,8.33
2019-02-09T18:41:32.128Z,9.90
2019-02-09T18:44:02.555Z,10.47
2019-02-09T18:46:34.203Z,11.43
2019-02-09T18:49:06.463Z,12.63
2019-02-09T18:51:37.372Z,10.83
2019-02-09T18:54:07.872Z,8.63
2019-02-09T18:56:38.344Z,14.20
2019-02-09T18:59:08.852Z,7.80
2019-02-09T19:01:39.230Z,9.40
2019-02-09T19:04:09.786Z,10.80
2019-02-09T19:06:40.167Z,12.37
2019-02-09T19:09:13.959Z,10.53
2019-02-09T19:11:44.236Z,13.57
2019-02-09T19:14:14.680Z,10.67
2019-02-09T19:16:45.123Z,13.20
2019-02-09T19:19:15.756Z,14.27
2019-02-09T19:21:46.351Z,10.77
2019-02-09T19:24:16.855Z,10.57
2019-02-09T19:26:48.164Z,14.57
2019-02-09T19:29:18.683Z,11.77
2019-02-09T19:31:49.423Z,14.80
2019-02-09T19:34:19.887Z,12.47
2019-02-09T19:36:50.872Z,12.13
2019-02-09T19:39:21.292Z,10.17
2019-02-09T19:41:51.618Z,14.27
2019-02-09T19:44:22.321Z,7.33
2019-02-09T19:46:52.603Z,12.60
2019-02-09T19:49:23.502Z,7.37
2019-02-09T19:51:53.904Z,10.40
2019-02-09T19:54:24.649Z,11.30
2019-02-09T19:56:55.779Z,11.40
2019-02-09T19:59:26.179Z,16.77
2019-02-09T20:01:56.840Z,15.37
2019-02-09T20:04:27.351Z,8.77
2019-02-09T20:07:00.838Z,7.63
2019-02-09T20:09:31.608Z,10.93
2019-02-09T20:12:02.046Z,12.67
2019-02-09T20:14:33.433Z,12.87
2019-02-09T20:17:04.084Z,12.93
2019-02-09T20:19:36.664Z,13.33
2019-02-09T20:22:07.116Z,10.50
2019-02-09T20:24:39.753Z,10.33
2019-02-09T20:27:10.359Z,13.17
2019-02-09T20:29:40.736Z,9.60
2019-02-09T20:32:11.165Z,11.77
2019-02-09T20:34:41.603Z,11.30
2019-02-09T20:37:11.993Z,12.37
2019-02-09T20:39:42.400Z,12.37
2019-02-09T20:42:15.791Z,12.43
2019-02-09T20:44:46.185Z,13.80
2019-02-09T20:47:16.674Z,11.20
2019-02-09T20:49:47.072Z,11.83
2019-02-09T20:52:17.476Z,6.30
2019-02-09T20:54:49.475Z,12.83
2019-02-09T20:57:19.909Z,11.10
2019-02-09T20:59:52.671Z,12.07
2019-02-09T21:02:23.161Z,16.77
2019-02-09T21:04:53.668Z,13.17
2019-02-09T21:07:24.831Z,16.37
2019-02-09T21:09:55.369Z,14.17
2019-02-09T21:12:25.816Z,13.50
2019-02-09T21:14:56.199Z,15.33
2019-02-09T21:17:26.604Z,12.13
2019-02-09T21:19:57.437Z,15.57
2019-02-09T21:22:27.866Z,16.23
2019-02-09T21:24:58.243Z,13.20
2019-02-09T21:27:28.673Z,11.40
2019-02-09T21:29:59.159Z,9.40
2019-02-09T21:32:29.611Z,16.70
2019-02-09T21:35:00.182Z,14.23
2019-02-09T21:37:30.590Z,8.63
2019-02-09T21:40:01.086Z,12.87
2019-02-09T21:42:31.491Z,13.33
2019-02-09T21:45:02.266Z,11.93
2019-02-09T21:47:32.697Z,12.23
2019-02-09T21:50:03.148Z,13.40
2019-02-09T21:52:33.880Z,15.97
2019-02-09T21:55:04.845Z,18.47
2019-02-09T21:57:35.301Z,15.57
2019-02-09T22:00:19.727Z,12.03
2019-02-09T22:02:52.374Z,12.03
2019-02-09T22:05:22.789Z,18.30
2019-02-09T22:07:53.227Z,10.00
2019-02-09T22:10:29.193Z,14.63
2019-02-09T22:12:59.615Z,17.33
2019-02-09T22:15:37.987Z,12.17
2019-02-09T22:18:02.399Z,15.63
2019-02-09T22:20:32.783Z,12.80
2019-02-09T22:23:03.207Z,14.27
2019-02-09T22:25:35.066Z,12.50
2019-02-09T22:28:05.701Z,15.13
2019-02-09T22:30:36.128Z,11.57
2019-02-09T22:33:06.571Z,16.53
2019-02-09T22:35:37.434Z,15.73
2019-02-09T22:38:07.950Z,14.60
2019-02-09T22:40:38.880Z,14.37
2019-02-09T22:43:09.473Z,12.47
2019-02-09T22:45:40.177Z,13.97
2019-02-09T22:48:10.846Z,10.77
2019-02-09T22:50:43.620Z,17.13
2019-02-09T22:53:16.407Z,16.03
2019-02-09T22:55:46.897Z,15.40
2019-02-09T22:58:17.244Z,15.73
2019-02-09T23:00:53.322Z,12.93
2019-02-09T23:03:36.674Z,10.90
2019-02-09T23:06:41.308Z,14.20
2019-02-09T23:09:15.593Z,15.07
2019-02-09T23:11:46.145Z,12.87
2019-02-09T23:14:16.891Z,15.60
2019-02-09T23:16:48.338Z,17.30
2019-02-09T23:19:18.883Z,17.33
2019-02-09T23:21:49.288Z,16.20
2019-02-09T23:24:22.825Z,11.57
2019-02-09T23:26:53.285Z,12.70
2019-02-09T23:29:23.815Z,13.17
2019-02-09T23:31:54.175Z,13.03
2019-02-09T23:34:24.632Z,20.93
2019-02-09T23:36:55.033Z,17.03
2019-02-09T23:39:25.463Z,10.03
2019-02-09T23:41:58.014Z,21.53
2019-02-09T23:44:28.407Z,10.53
2019-02-09T23:46:58.780Z,15.43
2019-02-09T23:49:29.281Z,14.10
2019-02-09T23:51:59.759Z,15.53
2019-02-09T23:54:30.216Z,13.53
2019-02-09T23:57:00.957Z,14.80
2019-02-09T23:59:31.333Z,12.73
